Time;durP1;ratioP1;P1;durP2;ratioP2;P2;SDS_P1;SDS_P2;PMS_P1;PMS_P2;Temp;Humidity;BMP_temperature;BMP_pressure;BME280_temperature;BME280_humidity;BME280_pressure;Samples;Min_cycle;Max_cycle;Signal;HPM_P1;HPM_P2
2021/11/24 00:02:06;;;;;;;4.75;1.25;;;5.80;99.90;;;;;;4999277;28;20475;-64
2021/11/24 00:04:33;;;;;;;5.25;1.20;;;5.80;99.90;;;;;;5007688;28;20050;-64
2021/11/24 00:07:00;;;;;;;6.70;2.08;;;5.80;99.90;;;;;;5010963;28;20038;-74
2021/11/24 00:09:27;;;;;;;2.83;2.03;;;5.80;99.90;;;;;;5007711;28;20337;-64
2021/11/24 00:11:54;;;;;;;2.90;1.10;;;5.80;99.90;;;;;;5009035;28;20078;-64
2021/11/24 00:14:21;;;;;;;7.20;1.55;;;5.90;99.90;;;;;;5007704;28;20030;-63
2021/11/24 00:16:48;;;;;;;3.67;1.50;;;5.80;99.90;;;;;;5009974;28;20061;-65
2021/11/24 00:19:15;;;;;;;4.75;1.35;;;5.80;99.90;;;;;;5006742;28;20507;-63
2021/11/24 00:21:42;;;;;;;2.55;1.77;;;5.90;99.90;;;;;;5009527;28;20495;-63
2021/11/24 00:24:09;;;;;;;6.93;1.50;;;5.90;99.90;;;;;;5007767;28;20046;-71
2021/11/24 00:26:36;;;;;;;4.63;1.70;;;5.90;99.90;;;;;;5008841;28;20423;-64
2021/11/24 00:29:03;;;;;;;2.03;1.17;;;5.90;99.90;;;;;;5006126;28;20080;-67
2021/11/24 00:31:30;;;;;;;5.45;1.40;;;5.90;99.90;;;;;;5008599;28;20050;-66
2021/11/24 00:34:00;;;;;;;7.18;3.53;;;5.90;99.90;;;;;;5008160;28;20034;-67
2021/11/24 00:36:27;;;;;;;4.97;1.58;;;5.90;99.90;;;;;;5009187;28;20049;-64
2021/11/24 00:38:54;;;;;;;3.15;1.23;;;5.90;99.90;;;;;;5005145;28;20072;-74
2021/11/24 00:41:21;;;;;;;4.45;1.90;;;5.90;99.90;;;;;;5006022;28;20042;-63
2021/11/24 00:43:48;;;;;;;3.80;1.70;;;5.90;99.90;;;;;;5007031;28;20046;-63
2021/11/24 00:46:15;;;;;;;4.45;1.42;;;5.90;99.90;;;;;;5006982;28;20403;-63
2021/11/24 00:48:42;;;;;;;2.28;1.30;;;5.90;99.90;;;;;;5008118;28;20069;-65
2021/11/24 00:51:09;;;;;;;3.05;1.65;;;5.90;99.90;;;;;;5005804;28;20049;-65
2021/11/24 00:53:36;;;;;;;4.88;1.40;;;5.90;99.90;;;;;;5008847;28;20053;-64
2021/11/24 00:56:04;;;;;;;3.00;0.98;;;5.90;99.90;;;;;;5006497;28;20115;-64
2021/11/24 00:58:31;;;;;;;4.18;1.40;;;5.90;99.90;;;;;;5012075;28;20104;-63
2021/11/24 01:00:58;;;;;;;2.38;1.25;;;5.90;99.90;;;;;;5006229;28;20042;-64
2021/11/24 01:03:26;;;;;;;1.50;1.08;;;5.90;99.90;;;;;;5008649;28;20042;-65
2021/11/24 01:05:53;;;;;;;2.65;1.67;;;5.90;99.90;;;;;;5007658;28;20049;-64
2021/11/24 01:08:20;;;;;;;3.80;1.58;;;5.90;99.90;;;;;;5007888;28;20050;-64
2021/11/24 01:10:47;;;;;;;4.65;1.60;;;5.90;99.90;;;;;;5007046;28;20096;-64
2021/11/24 01:13:16;;;;;;;4.60;1.13;;;5.90;99.90;;;;;;5003058;28;20115;-74
2021/11/24 01:15:45;;;;;;;5.78;1.52;;;5.90;99.90;;;;;;5006242;28;20042;-69
2021/11/24 01:18:12;;;;;;;4.30;1.58;;;5.90;99.90;;;;;;5008217;28;20111;-63
2021/11/24 01:20:40;;;;;;;1.67;1.15;;;5.90;99.90;;;;;;5007792;28;20054;-64
2021/11/24 01:23:07;;;;;;;3.70;1.60;;;5.90;99.90;;;;;;5004779;28;20450;-64
2021/11/24 01:25:34;;;;;;;3.67;1.42;;;5.90;99.90;;;;;;5006641;28;20108;-64
2021/11/24 01:28:01;;;;;;;2.47;1.52;;;5.90;99.90;;;;;;5006514;28;20046;-66
2021/11/24 01:30:28;;;;;;;4.65;1.70;;;5.90;99.90;;;;;;5008040;28;20062;-64
2021/11/24 01:32:55;;;;;;;5.07;2.00;;;5.90;99.90;;;;;;5005408;28;20042;-64
2021/11/24 01:35:22;;;;;;;2.10;1.60;;;5.90;99.90;;;;;;5006533;28;20045;-64
2021/11/24 01:37:49;;;;;;;2.30;1.25;;;5.90;99.90;;;;;;5005112;28;20046;-65
2021/11/24 01:40:18;;;;;;;2.42;1.40;;;5.90;99.90;;;;;;5005077;28;20072;-63
2021/11/24 01:42:45;;;;;;;4.05;1.27;;;5.90;99.90;;;;;;5006642;28;20054;-63
2021/11/24 01:45:17;;;;;;;5.60;1.25;;;5.90;99.90;;;;;;5005109;28;20041;-64
2021/11/24 01:47:45;;;;;;;7.47;1.20;;;5.90;99.90;;;;;;5005635;28;20038;-64
2021/11/24 01:50:13;;;;;;;2.70;1.40;;;5.90;99.90;;;;;;5006080;28;20103;-65
2021/11/24 01:52:40;;;;;;;3.70;1.30;;;6.00;99.90;;;;;;5010154;28;20042;-67
2021/11/24 01:55:10;;;;;;;6.30;1.33;;;6.00;99.90;;;;;;5001556;28;20716;-65
2021/11/24 01:57:41;;;;;;;5.85;1.63;;;6.00;99.90;;;;;;5006455;28;20038;-65
2021/11/24 02:00:09;;;;;;;5.55;1.13;;;6.00;99.90;;;;;;5006672;28;20100;-64
2021/11/24 02:02:38;;;;;;;7.10;2.00;;;6.00;99.90;;;;;;5004940;28;20411;-73
2021/11/24 02:05:06;;;;;;;7.57;1.98;;;6.00;99.90;;;;;;5005149;28;20041;-65
2021/11/24 02:07:33;;;;;;;7.32;2.00;;;5.90;99.90;;;;;;5002011;28;20046;-64
2021/11/24 02:10:00;;;;;;;3.88;1.30;;;5.90;99.90;;;;;;5007703;28;20042;-68
2021/11/24 02:12:27;;;;;;;5.13;1.30;;;5.90;99.90;;;;;;5005354;28;20787;-64
2021/11/24 02:14:55;;;;;;;4.50;1.25;;;5.90;99.90;;;;;;5007169;28;20061;-66
2021/11/24 02:17:22;;;;;;;4.20;1.80;;;5.90;99.90;;;;;;5008536;28;20470;-63
2021/11/24 02:19:49;;;;;;;7.13;1.85;;;5.90;99.90;;;;;;5006270;28;20124;-63
2021/11/24 02:22:15;;;;;;;4.40;1.40;;;5.90;99.90;;;;;;5005487;28;20049;-67
2021/11/24 02:24:44;;;;;;;5.97;1.50;;;5.90;99.90;;;;;;5005659;28;20061;-64
2021/11/24 02:27:13;;;;;;;5.38;1.58;;;6.00;99.90;;;;;;5003879;28;20555;-65
2021/11/24 02:29:44;;;;;;;3.83;1.40;;;5.90;99.90;;;;;;5017623;28;20108;-65
2021/11/24 02:32:15;;;;;;;4.60;1.33;;;5.90;99.90;;;;;;5000911;28;20100;-65
2021/11/24 02:34:43;;;;;;;7.15;1.08;;;5.90;99.90;;;;;;5004687;28;20049;-73
2021/11/24 02:37:10;;;;;;;6.25;1.63;;;5.90;99.90;;;;;;5004493;28;20092;-65
2021/11/24 02:39:37;;;;;;;2.50;0.90;;;5.90;99.90;;;;;;5004995;28;20042;-64
2021/11/24 02:42:04;;;;;;;2.30;1.20;;;5.90;99.90;;;;;;5012278;28;20049;-68
2021/11/24 02:44:37;;;;;;;26.30;2.22;;;5.90;99.90;;;;;;5003975;28;20049;-66
2021/11/24 02:47:15;;;;;;;10.13;1.48;;;5.90;99.90;;;;;;5005015;28;20045;-63
2021/11/24 02:49:46;;;;;;;3.42;1.30;;;5.90;99.90;;;;;;5004747;28;20141;-66
2021/11/24 02:52:15;;;;;;;3.90;1.70;;;5.90;99.90;;;;;;5012051;28;20053;-65
2021/11/24 02:54:50;;;;;;;6.00;1.08;;;5.80;99.90;;;;;;5004409;28;20042;-72
2021/11/24 02:57:17;;;;;;;5.22;1.60;;;5.90;99.90;;;;;;5003859;28;20095;-63
2021/11/24 02:59:44;;;;;;;6.90;1.65;;;5.80;99.90;;;;;;5003484;28;20050;-66
2021/11/24 03:02:11;;;;;;;5.00;1.83;;;5.80;99.90;;;;;;5005488;28;20120;-65
2021/11/24 03:04:40;;;;;;;3.90;1.50;;;5.80;99.90;;;;;;5006496;28;20053;-65
2021/11/24 03:07:07;;;;;;;5.75;1.40;;;5.80;99.90;;;;;;5004255;28;20451;-65
2021/11/24 03:09:35;;;;;;;2.97;1.80;;;5.80;99.90;;;;;;5004442;28;20137;-67
2021/11/24 03:12:03;;;;;;;4.45;1.58;;;5.80;99.90;;;;;;5002580;28;20936;-69
2021/11/24 03:14:30;;;;;;;4.47;1.05;;;5.80;99.90;;;;;;5002329;28;20053;-64
2021/11/24 03:16:57;;;;;;;6.07;1.35;;;5.80;99.90;;;;;;5002956;28;20072;-71
2021/11/24 03:19:24;;;;;;;4.47;1.42;;;5.80;99.90;;;;;;5005314;28;20404;-66
2021/11/24 03:21:51;;;;;;;2.83;1.20;;;5.80;99.90;;;;;;5004484;28;20038;-64
2021/11/24 03:24:18;;;;;;;3.83;1.30;;;5.80;99.90;;;;;;5005798;28;20037;-65
2021/11/24 03:26:45;;;;;;;7.50;1.42;;;5.70;99.90;;;;;;5003216;28;20054;-63
2021/11/24 03:29:12;;;;;;;3.35;1.30;;;5.70;99.90;;;;;;5005455;28;20514;-63
2021/11/24 03:31:40;;;;;;;6.43;1.50;;;5.70;99.90;;;;;;5004415;28;20042;-66
2021/11/24 03:34:07;;;;;;;8.68;1.25;;;5.70;99.90;;;;;;5006280;28;20407;-64
2021/11/24 03:36:34;;;;;;;2.75;2.08;;;5.70;99.90;;;;;;5002922;28;20058;-64
2021/11/24 03:39:01;;;;;;;3.20;1.77;;;5.70;99.90;;;;;;5002846;28;20038;-64
2021/11/24 03:41:28;;;;;;;4.70;2.00;;;5.70;99.90;;;;;;5003628;28;20069;-72
2021/11/24 03:43:55;;;;;;;5.38;1.50;;;5.70;99.90;;;;;;5005785;28;20050;-65
2021/11/24 03:46:22;;;;;;;2.50;1.23;;;5.70;99.90;;;;;;5004493;28;20092;-66
2021/11/24 03:48:50;;;;;;;2.85;1.95;;;5.70;99.90;;;;;;5005617;28;20129;-64
2021/11/24 03:51:17;;;;;;;8.32;1.92;;;5.70;99.90;;;;;;5007414;28;20065;-66
2021/11/24 03:53:44;;;;;;;3.78;1.58;;;5.70;99.90;;;;;;5005233;28;20057;-64
2021/11/24 03:56:12;;;;;;;9.88;1.70;;;5.70;99.90;;;;;;5004369;28;20062;-63
2021/11/24 03:58:39;;;;;;;11.00;2.38;;;5.70;99.90;;;;;;5003920;28;21310;-66
2021/11/24 04:01:07;;;;;;;2.53;1.17;;;5.70;99.90;;;;;;5003370;28;20042;-69
2021/11/24 04:03:34;;;;;;;5.78;1.55;;;5.70;99.90;;;;;;5005700;28;20077;-63
2021/11/24 04:06:01;;;;;;;2.88;1.60;;;5.70;99.90;;;;;;5008154;28;20046;-69
2021/11/24 04:08:29;;;;;;;4.60;1.55;;;5.70;99.90;;;;;;5006639;28;20073;-64
2021/11/24 04:10:56;;;;;;;2.92;2.45;;;5.70;99.90;;;;;;5009312;28;20038;-64
2021/11/24 04:13:23;;;;;;;4.72;1.83;;;5.70;99.90;;;;;;5005637;28;20325;-63
2021/11/24 04:15:50;;;;;;;3.63;1.33;;;5.80;99.90;;;;;;5007455;28;20077;-64
2021/11/24 04:18:17;;;;;;;4.10;1.65;;;5.80;99.90;;;;;;5008626;28;20104;-67
2021/11/24 04:20:44;;;;;;;5.65;1.92;;;5.80;99.90;;;;;;5007650;28;20050;-64
2021/11/24 04:23:11;;;;;;;4.75;1.55;;;5.80;99.90;;;;;;5005866;28;20385;-65
2021/11/24 04:25:38;;;;;;;4.60;2.03;;;5.80;99.90;;;;;;5007001;28;20100;-65
2021/11/24 04:28:05;;;;;;;13.48;2.47;;;5.80;99.90;;;;;;5008683;28;20050;-66
2021/11/24 04:30:33;;;;;;;5.15;2.25;;;5.80;99.90;;;;;;5007764;28;20041;-73
2021/11/24 04:33:00;;;;;;;4.80;1.35;;;5.80;99.90;;;;;;5007623;28;20038;-65
2021/11/24 04:35:27;;;;;;;6.90;2.03;;;5.80;99.90;;;;;;5006098;28;20046;-65
2021/11/24 04:37:54;;;;;;;6.95;2.95;;;5.80;99.90;;;;;;5008814;28;20034;-67
2021/11/24 04:40:21;;;;;;;4.05;2.78;;;5.80;99.90;;;;;;5006546;28;20504;-64
2021/11/24 04:42:49;;;;;;;3.92;1.55;;;5.80;99.90;;;;;;5008836;28;20770;-64
2021/11/24 04:45:17;;;;;;;7.57;1.88;;;5.80;99.90;;;;;;5004684;28;20389;-64
2021/11/24 04:47:44;;;;;;;4.80;2.10;;;5.80;99.90;;;;;;5008805;28;20050;-65
2021/11/24 04:50:12;;;;;;;5.30;1.65;;;5.80;99.90;;;;;;5006028;28;20129;-64
2021/11/24 04:52:39;;;;;;;7.07;1.80;;;5.80;99.90;;;;;;5008650;28;20124;-67
2021/11/24 04:55:07;;;;;;;6.10;1.70;;;5.80;99.90;;;;;;5003979;28;20084;-71
2021/11/24 04:57:34;;;;;;;4.05;2.10;;;5.80;99.90;;;;;;5008287;28;20294;-64
2021/11/24 05:00:07;;;;;;;4.35;2.72;;;5.90;99.90;;;;;;5040287;28;20100;-64
2021/11/24 05:02:34;;;;;;;4.50;1.80;;;5.80;99.90;;;;;;5006308;28;20065;-67
2021/11/24 05:05:01;;;;;;;5.95;1.20;;;5.80;99.90;;;;;;5006260;28;20052;-73
2021/11/24 05:07:28;;;;;;;2.42;1.23;;;5.80;99.90;;;;;;5005343;28;20535;-69
2021/11/24 05:10:02;;;;;;;13.25;2.20;;;5.90;99.90;;;;;;5007311;28;20041;-70
2021/11/24 05:12:29;;;;;;;4.78;1.48;;;5.90;99.90;;;;;;5005990;28;20048;-66
2021/11/24 05:14:58;;;;;;;8.82;2.50;;;5.80;99.90;;;;;;5007434;28;20091;-65
2021/11/24 05:17:26;;;;;;;5.28;1.63;;;5.80;99.90;;;;;;5003211;28;20364;-68
2021/11/24 05:19:53;;;;;;;6.97;2.25;;;5.80;99.90;;;;;;5008106;28;20058;-65
2021/11/24 05:22:21;;;;;;;6.10;3.30;;;5.80;99.90;;;;;;5007306;28;20588;-64
2021/11/24 05:24:50;;;;;;;4.97;3.17;;;5.80;99.90;;;;;;5006180;28;20112;-64
2021/11/24 05:27:18;;;;;;;4.60;2.08;;;5.80;99.90;;;;;;5004150;28;20092;-64
2021/11/24 05:29:45;;;;;;;8.10;1.42;;;5.80;99.90;;;;;;5006326;28;20365;-65
2021/11/24 05:32:12;;;;;;;11.18;1.90;;;5.80;99.90;;;;;;5006027;28;20407;-64
2021/11/24 05:34:39;;;;;;;6.72;1.80;;;5.80;99.90;;;;;;5007388;28;20503;-69
2021/11/24 05:37:07;;;;;;;9.23;2.80;;;5.80;99.90;;;;;;5005161;28;20045;-67
2021/11/24 05:39:35;;;;;;;3.35;1.48;;;5.80;99.90;;;;;;5006837;28;20345;-64
2021/11/24 05:42:04;;;;;;;5.70;1.83;;;5.80;99.90;;;;;;5004907;28;20492;-67
2021/11/24 05:44:34;;;;;;;9.90;1.50;;;5.80;99.90;;;;;;5005662;28;20050;-67
2021/11/24 05:47:08;;;;;;;4.57;1.70;;;5.80;99.90;;;;;;5006211;28;20065;-66
2021/11/24 05:49:37;;;;;;;4.28;1.35;;;5.80;99.90;;;;;;5006722;28;20627;-64
2021/11/24 05:52:05;;;;;;;5.60;1.70;;;5.80;99.90;;;;;;5006733;28;20318;-64
2021/11/24 05:54:33;;;;;;;6.78;3.05;;;5.80;99.90;;;;;;5006367;28;20053;-64
2021/11/24 05:57:00;;;;;;;7.75;1.98;;;5.80;99.90;;;;;;5006285;28;20121;-69
2021/11/24 05:59:29;;;;;;;3.10;1.65;;;5.80;99.90;;;;;;5003831;28;20046;-64
2021/11/24 06:01:57;;;;;;;5.50;2.08;;;5.80;99.90;;;;;;5000343;28;20037;-66
2021/11/24 06:04:27;;;;;;;5.15;1.45;;;5.80;99.90;;;;;;5002230;28;20044;-67
2021/11/24 06:06:55;;;;;;;7.60;2.10;;;5.80;99.90;;;;;;5018869;28;20365;-66
2021/11/24 06:09:22;;;;;;;4.95;1.98;;;5.80;99.90;;;;;;5015938;28;20053;-63
2021/11/24 06:11:49;;;;;;;2.70;1.65;;;5.80;99.90;;;;;;5002397;28;20038;-65
2021/11/24 06:14:16;;;;;;;5.43;2.65;;;5.80;99.90;;;;;;5003088;28;20492;-64
2021/11/24 06:16:44;;;;;;;11.18;1.92;;;5.80;99.90;;;;;;5001093;28;20041;-64
2021/11/24 06:19:12;;;;;;;8.30;1.90;;;5.90;99.90;;;;;;5011384;28;20228;-65
2021/11/24 06:21:39;;;;;;;5.28;2.47;;;5.90;99.90;;;;;;5001302;28;20499;-67
2021/11/24 06:24:06;;;;;;;6.75;1.60;;;5.90;99.90;;;;;;5005568;28;20447;-64
2021/11/24 06:26:34;;;;;;;7.45;1.58;;;5.90;99.90;;;;;;5001199;28;20068;-64
2021/11/24 06:29:02;;;;;;;6.22;2.00;;;5.90;99.90;;;;;;5014200;28;20773;-70
2021/11/24 06:31:29;;;;;;;7.32;2.28;;;5.90;99.90;;;;;;4999736;28;20479;-67
2021/11/24 06:33:57;;;;;;;3.97;1.52;;;5.90;99.90;;;;;;4999615;28;20069;-64
2021/11/24 06:36:41;;;;;;;5.25;1.60;;;5.90;99.90;;;;;;5024999;28;20445;-65
2021/11/24 06:39:09;;;;;;;8.20;3.47;;;6.00;99.90;;;;;;5003099;28;20120;-64
2021/11/24 06:41:38;;;;;;;9.95;1.70;;;6.00;99.90;;;;;;5029226;28;20038;-73
2021/11/24 06:44:08;;;;;;;3.20;1.20;;;6.00;99.90;;;;;;5016017;28;20060;-69
2021/11/24 06:46:38;;;;;;;6.10;1.65;;;6.00;99.90;;;;;;4995271;28;20110;-66
2021/11/24 06:49:05;;;;;;;10.90;3.15;;;6.10;99.90;;;;;;5002141;28;20579;-67
2021/11/24 06:51:32;;;;;;;9.40;1.63;;;6.10;99.90;;;;;;5011875;28;20071;-64
2021/11/24 06:54:00;;;;;;;3.70;1.60;;;6.10;99.90;;;;;;5007373;28;20046;-77
2021/11/24 06:56:27;;;;;;;11.90;3.15;;;6.10;99.90;;;;;;5007070;28;20030;-65
2021/11/24 06:58:54;;;;;;;6.63;1.90;;;6.10;99.90;;;;;;5004375;28;20054;-68
2021/11/24 07:01:21;;;;;;;5.28;1.30;;;6.20;99.90;;;;;;5004442;28;20072;-64
2021/11/24 07:04:01;;;;;;;7.40;2.45;;;6.20;99.90;;;;;;5006601;28;20042;-65
2021/11/24 07:06:28;;;;;;;4.43;2.20;;;6.20;99.90;;;;;;5006078;28;20420;-68
2021/11/24 07:08:55;;;;;;;5.38;1.73;;;6.20;99.90;;;;;;5001541;28;20046;-68
2021/11/24 07:11:28;;;;;;;3.00;1.50;;;6.20;99.90;;;;;;5001687;28;20061;-64
2021/11/24 07:13:55;;;;;;;10.23;1.67;;;6.20;99.90;;;;;;5004540;28;20050;-65
2021/11/24 07:16:22;;;;;;;4.22;1.63;;;6.20;99.90;;;;;;5003409;28;20435;-63
2021/11/24 07:18:49;;;;;;;5.03;1.35;;;6.20;99.90;;;;;;5004452;28;20046;-63
2021/11/24 07:21:16;;;;;;;4.28;0.90;;;6.20;99.90;;;;;;5002000;28;20046;-65
2021/11/24 07:23:43;;;;;;;6.53;2.67;;;6.30;99.90;;;;;;5004985;28;20074;-62
2021/11/24 07:26:11;;;;;;;6.65;1.20;;;6.30;99.90;;;;;;5002897;28;20041;-63
2021/11/24 07:28:38;;;;;;;2.20;2.00;;;6.30;99.90;;;;;;5005179;28;20710;-70
2021/11/24 07:31:07;;;;;;;8.75;1.30;;;6.30;99.90;;;;;;4999146;28;20125;-65
2021/11/24 07:33:35;;;;;;;4.25;1.35;;;6.30;99.90;;;;;;4983074;28;20148;-71
2021/11/24 07:36:03;;;;;;;3.67;0.93;;;6.30;99.90;;;;;;5003081;28;20764;-64
2021/11/24 07:38:30;;;;;;;6.07;1.27;;;6.30;99.90;;;;;;5002399;28;20046;-74
2021/11/24 07:40:58;;;;;;;4.03;1.23;;;6.30;99.90;;;;;;5004179;28;20050;-70
2021/11/24 07:43:26;;;;;;;5.47;2.65;;;6.30;99.90;;;;;;5019518;28;20057;-68
2021/11/24 07:45:53;;;;;;;8.40;1.77;;;6.30;99.90;;;;;;5008198;28;20050;-74
2021/11/24 07:48:22;;;;;;;6.40;1.83;;;6.30;99.90;;;;;;5039207;28;20052;-68
2021/11/24 07:50:49;;;;;;;5.20;1.20;;;6.30;99.90;;;;;;5004817;28;20034;-65
2021/11/24 07:53:17;;;;;;;6.22;1.67;;;6.30;99.90;;;;;;5003885;28;20046;-67
2021/11/24 07:55:44;;;;;;;4.07;1.40;;;6.30;99.90;;;;;;5005220;28;20045;-74
2021/11/24 07:58:13;;;;;;;4.57;1.77;;;6.30;99.90;;;;;;4989595;28;20852;-64
2021/11/24 08:00:41;;;;;;;8.52;1.83;;;6.30;99.90;;;;;;5007052;28;20480;-69
2021/11/24 08:03:10;;;;;;;4.40;1.00;;;6.40;99.90;;;;;;5000248;28;20137;-65
2021/11/24 08:05:38;;;;;;;8.25;1.40;;;6.40;99.90;;;;;;5039158;28;20088;-63
2021/11/24 08:08:06;;;;;;;9.07;2.13;;;6.40;99.90;;;;;;5020247;28;20076;-64
2021/11/24 08:10:35;;;;;;;7.63;1.65;;;6.30;99.90;;;;;;5011847;28;20057;-65
2021/11/24 08:13:02;;;;;;;3.72;1.67;;;6.30;99.90;;;;;;5032645;28;20581;-65
2021/11/24 08:15:34;;;;;;;8.68;1.55;;;6.40;99.90;;;;;;4986952;28;20052;-63
2021/11/24 08:18:02;;;;;;;6.60;0.85;;;6.40;99.90;;;;;;5003806;28;20042;-69
2021/11/24 08:20:31;;;;;;;6.18;2.05;;;6.40;99.90;;;;;;5001753;28;20041;-64
2021/11/24 08:23:00;;;;;;;5.18;1.48;;;6.40;99.90;;;;;;4992650;28;20062;-64
2021/11/24 08:25:27;;;;;;;7.15;0.98;;;6.40;99.90;;;;;;5002223;28;20440;-64
2021/11/24 08:27:54;;;;;;;4.05;1.23;;;6.40;99.90;;;;;;5037028;28;20096;-67
2021/11/24 08:30:24;;;;;;;5.32;1.55;;;6.50;99.90;;;;;;4988923;28;20056;-67
2021/11/24 08:32:52;;;;;;;5.82;1.20;;;6.50;99.90;;;;;;5035680;28;20096;-67
2021/11/24 08:35:24;;;;;;;5.68;1.23;;;6.60;99.90;;;;;;4988817;28;20423;-71
2021/11/24 08:37:52;;;;;;;6.80;1.95;;;6.60;99.90;;;;;;5013487;28;20099;-64
2021/11/24 08:40:20;;;;;;;3.75;1.52;;;6.60;99.90;;;;;;5002258;28;20543;-64
2021/11/24 08:42:49;;;;;;;7.40;1.27;;;6.60;99.90;;;;;;5004527;28;20052;-66
2021/11/24 08:45:16;;;;;;;3.22;1.15;;;6.60;99.90;;;;;;4996964;28;20047;-65
2021/11/24 08:47:45;;;;;;;2.58;1.10;;;6.60;99.90;;;;;;5007433;28;20046;-65
2021/11/24 08:50:14;;;;;;;4.00;1.50;;;6.60;99.90;;;;;;5019001;28;20100;-68
2021/11/24 08:52:42;;;;;;;3.40;1.77;;;6.60;99.90;;;;;;5006804;28;20042;-64
2021/11/24 08:55:11;;;;;;;6.53;1.17;;;6.70;99.90;;;;;;5000403;28;20049;-74
2021/11/24 08:57:39;;;;;;;3.75;0.95;;;6.70;99.90;;;;;;4989072;28;20052;-65
2021/11/24 09:00:13;;;;;;;3.85;1.30;;;6.70;99.90;;;;;;5005444;28;20336;-65
2021/11/24 09:02:42;;;;;;;1.50;0.80;;;6.70;99.90;;;;;;5002705;28;20046;-75
2021/11/24 09:05:11;;;;;;;2.00;1.27;;;6.70;99.90;;;;;;5002923;28;21250;-69
2021/11/24 09:07:38;;;;;;;10.65;2.28;;;6.70;99.90;;;;;;5003680;28;20050;-66
2021/11/24 09:10:06;;;;;;;6.35;2.15;;;6.80;99.90;;;;;;5007231;28;20088;-64
2021/11/24 09:12:34;;;;;;;12.70;2.80;;;6.70;99.90;;;;;;5006901;28;20053;-64
2021/11/24 09:15:01;;;;;;;12.27;2.10;;;6.70;99.90;;;;;;5010059;28;20045;-64
2021/11/24 09:17:28;;;;;;;4.25;1.45;;;6.80;99.90;;;;;;5003160;28;20045;-64
2021/11/24 09:19:55;;;;;;;2.35;1.13;;;6.80;99.90;;;;;;5008741;28;20077;-63
2021/11/24 09:22:37;;;;;;;6.00;1.38;;;6.80;99.90;;;;;;5004471;28;20328;-66
2021/11/24 09:25:05;;;;;;;3.60;1.58;;;6.80;99.90;;;;;;5004752;28;20046;-65
2021/11/24 09:27:34;;;;;;;3.88;1.25;;;6.80;99.90;;;;;;5004659;28;20667;-63
2021/11/24 09:30:03;;;;;;;1.95;0.93;;;6.80;99.90;;;;;;5004955;28;20096;-63
2021/11/24 09:32:30;;;;;;;8.52;1.83;;;6.80;99.90;;;;;;5004470;28;20050;-64
2021/11/24 09:34:59;;;;;;;3.80;1.17;;;6.80;99.90;;;;;;5008245;28;20045;-65
2021/11/24 09:37:26;;;;;;;4.78;1.77;;;6.90;99.90;;;;;;5005516;28;20431;-66
2021/11/24 09:39:53;;;;;;;4.82;1.45;;;6.90;99.90;;;;;;5007943;28;20453;-63
2021/11/24 09:42:23;;;;;;;7.32;1.60;;;6.90;99.90;;;;;;5005457;28;20053;-66
2021/11/24 09:44:51;;;;;;;9.35;1.90;;;6.90;99.90;;;;;;5005311;28;20586;-66
2021/11/24 09:47:19;;;;;;;5.43;1.42;;;6.90;99.90;;;;;;5004504;28;20439;-63
2021/11/24 09:49:47;;;;;;;5.22;1.67;;;6.90;99.90;;;;;;5007313;28;20122;-67
2021/11/24 09:52:20;;;;;;;3.42;1.58;;;7.00;99.90;;;;;;5005085;28;20046;-63
2021/11/24 09:54:51;;;;;;;4.05;1.02;;;7.00;99.90;;;;;;5005834;28;20407;-63
2021/11/24 09:57:24;;;;;;;4.65;0.90;;;7.00;99.90;;;;;;5006254;28;20046;-66
2021/11/24 09:59:51;;;;;;;9.25;2.47;;;7.00;99.90;;;;;;5005226;28;20049;-67
2021/11/24 10:02:20;;;;;;;11.20;2.83;;;7.00;99.90;;;;;;5006460;28;20887;-63
2021/11/24 10:04:49;;;;;;;2.53;1.00;;;7.00;99.90;;;;;;5006985;28;20418;-73
2021/11/24 10:07:18;;;;;;;5.22;1.02;;;7.00;99.90;;;;;;5035690;28;20042;-65
2021/11/24 10:09:46;;;;;;;5.83;1.50;;;7.00;99.90;;;;;;5007187;28;20137;-66
2021/11/24 10:12:13;;;;;;;5.30;1.33;;;6.90;99.90;;;;;;5006133;28;20085;-65
2021/11/24 10:14:42;;;;;;;4.70;1.60;;;6.90;99.90;;;;;;5004709;28;20054;-69
2021/11/24 10:17:13;;;;;;;4.05;1.35;;;7.00;99.90;;;;;;5005956;28;20057;-63
2021/11/24 10:20:01;;;;;;;5.38;2.85;;;7.00;99.90;;;;;;5004760;28;20464;-64
2021/11/24 10:22:28;;;;;;;5.40;1.88;;;7.00;99.90;;;;;;5006411;28;20045;-68
2021/11/24 10:25:11;;;;;;;2.67;0.80;;;7.00;99.90;;;;;;5004583;28;20048;-65
2021/11/24 10:27:43;;;;;;;7.93;1.50;;;7.00;99.90;;;;;;5002762;28;20046;-66
2021/11/24 10:30:27;;;;;;;12.75;1.92;;;7.00;99.90;;;;;;5003121;28;20049;-66
2021/11/24 10:32:55;;;;;;;8.93;1.50;;;7.00;99.90;;;;;;5006476;28;20058;-69
2021/11/24 10:35:29;;;;;;;4.30;0.98;;;7.00;99.90;;;;;;5004331;28;20476;-62
2021/11/24 10:38:19;;;;;;;8.38;3.28;;;7.00;99.90;;;;;;5005446;28;20046;-64
2021/11/24 10:40:47;;;;;;;11.45;2.33;;;7.00;99.90;;;;;;5004767;28;20100;-66
2021/11/24 10:43:16;;;;;;;5.93;1.58;;;7.00;99.90;;;;;;5018035;28;20050;-62
2021/11/24 10:45:54;;;;;;;6.07;1.88;;;7.00;99.90;;;;;;5001214;28;20061;-66
2021/11/24 10:48:29;;;;;;;3.75;1.33;;;7.00;99.90;;;;;;5002737;28;20484;-62
2021/11/24 10:50:59;;;;;;;4.97;1.42;;;7.00;99.90;;;;;;5004936;28;20045;-68
2021/11/24 10:53:26;;;;;;;6.30;1.90;;;7.10;99.90;;;;;;5003139;28;20450;-66
2021/11/24 10:55:54;;;;;;;2.60;1.10;;;7.10;99.90;;;;;;5005929;28;20045;-67
2021/11/24 10:58:26;;;;;;;8.57;1.60;;;7.10;99.90;;;;;;5007200;28;20042;-62
2021/11/24 11:00:56;;;;;;;5.13;2.55;;;7.10;99.90;;;;;;5005732;28;20104;-63
2021/11/24 11:03:44;;;;;;;3.78;1.50;;;7.10;99.90;;;;;;5002729;28;20168;-66
2021/11/24 11:06:28;;;;;;;6.25;1.52;;;7.10;99.90;;;;;;5006129;28;20053;-63
2021/11/24 11:08:57;;;;;;;5.07;1.42;;;7.10;99.90;;;;;;5005366;28;20200;-62
2021/11/24 11:11:28;;;;;;;4.15;1.10;;;7.10;99.90;;;;;;5002936;28;20046;-64
2021/11/24 11:14:21;;;;;;;5.05;1.30;;;7.10;99.90;;;;;;5007008;28;20046;-63
2021/11/24 11:16:55;;;;;;;2.47;1.13;;;7.20;99.90;;;;;;5010132;28;20520;-63
2021/11/24 11:19:40;;;;;;;4.50;1.15;;;7.20;99.90;;;;;;5004934;28;20103;-63
2021/11/24 11:22:09;;;;;;;4.82;1.98;;;7.20;99.90;;;;;;5009883;28;20053;-63
2021/11/24 11:24:37;;;;;;;7.00;1.10;;;7.30;99.90;;;;;;5008434;28;20076;-63
2021/11/24 11:27:06;;;;;;;7.03;1.42;;;7.40;99.90;;;;;;5007548;28;20438;-67
2021/11/24 11:29:36;;;;;;;2.37;1.13;;;7.30;99.90;;;;;;5008442;28;20037;-62
2021/11/24 11:32:06;;;;;;;8.18;1.90;;;7.40;99.90;;;;;;5002498;28;20042;-65
2021/11/24 11:34:37;;;;;;;9.55;1.55;;;7.30;99.90;;;;;;5007091;28;20456;-63
2021/11/24 11:37:05;;;;;;;5.43;1.45;;;7.40;99.90;;;;;;5019225;28;20137;-62
2021/11/24 11:39:33;;;;;;;6.07;2.50;;;7.30;99.90;;;;;;5006845;28;20080;-66
2021/11/24 11:42:07;;;;;;;4.20;1.20;;;7.30;99.90;;;;;;5008524;28;20107;-68
2021/11/24 11:44:54;;;;;;;2.90;1.48;;;7.30;99.90;;;;;;5003368;28;20542;-66
2021/11/24 11:47:51;;;;;;;8.35;1.23;;;7.30;99.90;;;;;;5003155;28;20507;-69
2021/11/24 11:50:37;;;;;;;8.15;2.55;;;7.20;99.90;;;;;;5002127;28;20141;-66
2021/11/24 11:53:22;;;;;;;3.70;1.27;;;7.20;99.90;;;;;;5002604;28;20584;-64
2021/11/24 11:56:10;;;;;;;6.00;1.75;;;7.30;99.90;;;;;;5005020;28;20049;-64
2021/11/24 11:58:50;;;;;;;5.63;1.00;;;7.30;99.90;;;;;;5001001;28;20108;-65
2021/11/24 12:01:26;;;;;;;6.25;1.80;;;7.30;99.90;;;;;;5005422;28;20119;-65
2021/11/24 12:03:55;;;;;;;6.35;1.55;;;7.30;99.90;;;;;;5009228;28;20927;-66
2021/11/24 12:06:26;;;;;;;6.93;1.30;;;7.30;99.90;;;;;;5006832;28;20042;-65
2021/11/24 12:09:24;;;;;;;5.10;1.25;;;7.30;99.90;;;;;;5007841;28;20592;-67
2021/11/24 12:14:54;;;;;;;7.90;1.98;;;7.30;99.90;;;;;;5007555;28;20038;-66
2021/11/24 12:17:50;;;;;;;3.88;0.93;;;7.40;99.90;;;;;;5006210;28;20155;-66
2021/11/24 12:20:22;;;;;;;7.50;1.27;;;7.40;99.90;;;;;;5007664;28;20056;-68
2021/11/24 12:22:56;;;;;;;4.25;1.08;;;7.40;99.90;;;;;;5009858;28;20434;-66
2021/11/24 12:25:24;;;;;;;3.50;1.60;;;7.40;99.90;;;;;;5005929;28;20131;-63
2021/11/24 12:27:54;;;;;;;6.28;1.98;;;7.40;99.90;;;;;;5008076;28;20042;-65
2021/11/24 12:30:40;;;;;;;6.18;1.35;;;7.40;99.90;;;;;;5006794;28;20088;-68
2021/11/24 12:33:12;;;;;;;4.93;0.95;;;7.40;99.90;;;;;;5004775;28;20046;-64
2021/11/24 12:35:48;;;;;;;11.82;2.05;;;7.40;99.90;;;;;;5005534;28;20057;-65
2021/11/24 12:38:29;;;;;;;7.95;2.88;;;7.40;99.90;;;;;;5006802;28;20133;-65
2021/11/24 12:40:59;;;;;;;9.15;3.13;;;7.30;99.90;;;;;;5007478;28;20112;-63
2021/11/24 12:43:28;;;;;;;8.77;1.30;;;7.40;99.90;;;;;;5006222;28;20041;-68
2021/11/24 12:46:19;;;;;;;6.20;1.77;;;7.30;99.90;;;;;;5008468;28;20645;-67
2021/11/24 12:49:03;;;;;;;11.30;1.67;;;7.40;99.90;;;;;;5006350;28;20084;-70
2021/11/24 12:51:32;;;;;;;8.65;1.63;;;7.40;99.90;;;;;;5005255;28;20125;-69
2021/11/24 12:54:02;;;;;;;9.68;1.67;;;7.30;99.90;;;;;;5006573;28;20057;-66
2021/11/24 12:56:36;;;;;;;6.80;1.05;;;7.30;99.90;;;;;;5005820;28;20076;-64
2021/11/24 12:59:12;;;;;;;6.90;1.55;;;7.30;99.90;;;;;;5001847;28;20046;-64
2021/11/24 13:01:41;;;;;;;5.38;1.88;;;7.40;99.90;;;;;;5004186;28;20065;-71
2021/11/24 13:04:14;;;;;;;9.50;1.95;;;7.40;99.90;;;;;;5005292;28;20050;-66
2021/11/24 13:06:50;;;;;;;4.00;1.38;;;7.30;99.90;;;;;;5001060;28;20078;-67
2021/11/24 13:09:19;;;;;;;3.22;1.23;;;7.30;99.90;;;;;;5005367;28;20108;-67
2021/11/24 13:12:06;;;;;;;9.45;2.20;;;7.30;99.90;;;;;;5005482;28;20042;-65